sensor_id;sensor_type;location;lat;lon;timestamp;pressure;altitude;pressure_sealevel;temperature;humidity
33280;BME280;20403;43.114;12.434;2023-05-29T00:00:39;98852.03;;;15.52;100.00
33280;BME280;20403;43.114;12.434;2023-05-29T00:03:05;98854.91;;;15.45;100.00
33280;BME280;20403;43.114;12.434;2023-05-29T00:05:30;98854.66;;;15.47;100.00
33280;BME280;20403;43.114;12.434;2023-05-29T00:07:56;98850.19;;;15.52;100.00
33280;BME280;20403;43.114;12.434;2023-05-29T00:10:21;98848.09;;;15.49;100.00
33280;BME280;20403;43.114;12.434;2023-05-29T00:12:47;98842.56;;;15.41;100.00
33280;BME280;20403;43.114;12.434;2023-05-29T00:15:12;98843.59;;;15.34;100.00
33280;BME280;20403;43.114;12.434;2023-05-29T00:17:38;98836.50;;;15.30;100.00
33280;BME280;20403;43.114;12.434;2023-05-29T00:20:05;98842.53;;;15.30;100.00
33280;BME280;20403;43.114;12.434;2023-05-29T00:22:37;98837.28;;;15.36;100.00
33280;BME280;20403;43.114;12.434;2023-05-29T00:25:07;98842.53;;;15.36;100.00
33280;BME280;20403;43.114;12.434;2023-05-29T00:27:33;98841.47;;;15.26;100.00
33280;BME280;20403;43.114;12.434;2023-05-29T00:30:02;98846.72;;;15.31;100.00
33280;BME280;20403;43.114;12.434;2023-05-29T00:32:28;98833.88;;;15.30;100.00
33280;BME280;20403;43.114;12.434;2023-05-29T00:34:54;98836.75;;;15.23;100.00
33280;BME280;20403;43.114;12.434;2023-05-29T00:37:20;98838.28;;;15.14;100.00
33280;BME280;20403;43.114;12.434;2023-05-29T00:39:49;98842.75;;;15.13;100.00
33280;BME280;20403;43.114;12.434;2023-05-29T00:42:15;98836.69;;;15.13;100.00
33280;BME280;20403;43.114;12.434;2023-05-29T00:44:40;98832.44;;;15.02;100.00
33280;BME280;20403;43.114;12.434;2023-05-29T00:47:06;98836.91;;;14.96;100.00
33280;BME280;20403;43.114;12.434;2023-05-29T00:49:33;98838.75;;;15.01;100.00
33280;BME280;20403;43.114;12.434;2023-05-29T00:52:01;98834.56;;;15.00;100.00
33280;BME280;20403;43.114;12.434;2023-05-29T00:54:29;98835.56;;;14.88;100.00
33280;BME280;20403;43.114;12.434;2023-05-29T00:56:56;98844.44;;;14.82;100.00
33280;BME280;20403;43.114;12.434;2023-05-29T00:59:22;98843.41;;;14.83;100.00
33280;BME280;20403;43.114;12.434;2023-05-29T01:01:52;98840.00;;;14.88;100.00
33280;BME280;20403;43.114;12.434;2023-05-29T01:04:20;98840.81;;;14.88;100.00
33280;BME280;20403;43.114;12.434;2023-05-29T01:06:46;98841.59;;;14.89;100.00
33280;BME280;20403;43.114;12.434;2023-05-29T01:09:11;98838.22;;;14.99;100.00
33280;BME280;20403;43.114;12.434;2023-05-29T01:14:36;98834.75;;;14.88;100.00
33280;BME280;20403;43.114;12.434;2023-05-29T01:25:23;98849.66;;;14.72;100.00
33280;BME280;20403;43.114;12.434;2023-05-29T01:27:54;98850.19;;;14.74;100.00
33280;BME280;20403;43.114;12.434;2023-05-29T01:30:22;98847.25;;;14.60;100.00
33280;BME280;20403;43.114;12.434;2023-05-29T01:32:49;98849.81;;;14.55;100.00
33280;BME280;20403;43.114;12.434;2023-05-29T01:35:15;98846.63;;;14.53;100.00
33280;BME280;20403;43.114;12.434;2023-05-29T01:37:40;98854.75;;;14.52;100.00
33280;BME280;20403;43.114;12.434;2023-05-29T01:40:06;98854.28;;;14.55;100.00
33280;BME280;20403;43.114;12.434;2023-05-29T01:42:32;98845.84;;;14.53;100.00
33280;BME280;20403;43.114;12.434;2023-05-29T01:44:58;98844.88;;;14.59;100.00
33280;BME280;20403;43.114;12.434;2023-05-29T01:47:24;98850.66;;;14.61;100.00
33280;BME280;20403;43.114;12.434;2023-05-29T01:49:51;98845.09;;;14.57;100.00
33280;BME280;20403;43.114;12.434;2023-05-29T01:52:17;98849.09;;;14.65;100.00
33280;BME280;20403;43.114;12.434;2023-05-29T01:54:43;98838.72;;;14.48;100.00
33280;BME280;20403;43.114;12.434;2023-05-29T01:57:09;98845.03;;;14.47;100.00
33280;BME280;20403;43.114;12.434;2023-05-29T01:59:37;98845.28;;;14.45;100.00
33280;BME280;20403;43.114;12.434;2023-05-29T02:02:09;98840.25;;;14.44;100.00
33280;BME280;20403;43.114;12.434;2023-05-29T02:04:36;98845.50;;;14.39;100.00
33280;BME280;20403;43.114;12.434;2023-05-29T02:07:03;98842.06;;;14.33;100.00
33280;BME280;20403;43.114;12.434;2023-05-29T02:09:28;98838.38;;;14.34;100.00
33280;BME280;20403;43.114;12.434;2023-05-29T02:11:54;98838.66;;;14.38;100.00
33280;BME280;20403;43.114;12.434;2023-05-29T02:14:19;98845.69;;;14.32;100.00
33280;BME280;20403;43.114;12.434;2023-05-29T02:16:45;98848.06;;;14.28;100.00
33280;BME280;20403;43.114;12.434;2023-05-29T02:19:10;98842.03;;;14.28;100.00
33280;BME280;20403;43.114;12.434;2023-05-29T02:21:39;98844.03;;;14.21;100.00
33280;BME280;20403;43.114;12.434;2023-05-29T02:24:07;98851.69;;;14.27;100.00
33280;BME280;20403;43.114;12.434;2023-05-29T02:26:34;98847.75;;;14.25;100.00
33280;BME280;20403;43.114;12.434;2023-05-29T02:29:01;98846.22;;;14.29;100.00
33280;BME280;20403;43.114;12.434;2023-05-29T02:31:27;98842.25;;;14.26;100.00
33280;BME280;20403;43.114;12.434;2023-05-29T02:33:52;98844.31;;;14.19;100.00
33280;BME280;20403;43.114;12.434;2023-05-29T02:36:17;98850.97;;;14.00;100.00
33280;BME280;20403;43.114;12.434;2023-05-29T02:38:43;98842.06;;;14.01;100.00
33280;BME280;20403;43.114;12.434;2023-05-29T02:41:08;98846.56;;;14.05;100.00
33280;BME280;20403;43.114;12.434;2023-05-29T02:43:34;98846.03;;;14.03;100.00
33280;BME280;20403;43.114;12.434;2023-05-29T02:45:59;98844.69;;;14.01;100.00
33280;BME280;20403;43.114;12.434;2023-05-29T02:48:25;98847.19;;;13.85;100.00
33280;BME280;20403;43.114;12.434;2023-05-29T02:50:51;98843.22;;;13.83;100.00
33280;BME280;20403;43.114;12.434;2023-05-29T02:53:16;98842.09;;;13.74;100.00
33280;BME280;20403;43.114;12.434;2023-05-29T02:55:42;98840.56;;;13.78;100.00
33280;BME280;20403;43.114;12.434;2023-05-29T02:58:07;98849.25;;;13.83;100.00
33280;BME280;20403;43.114;12.434;2023-05-29T03:00:33;98841.75;;;13.92;100.00
33280;BME280;20403;43.114;12.434;2023-05-29T03:02:58;98835.94;;;13.90;100.00
33280;BME280;20403;43.114;12.434;2023-05-29T03:05:24;98836.91;;;13.79;100.00
33280;BME280;20403;43.114;12.434;2023-05-29T03:07:49;98832.72;;;13.78;100.00
33280;BME280;20403;43.114;12.434;2023-05-29T03:10:15;98836.41;;;13.82;100.00
33280;BME280;20403;43.114;12.434;2023-05-29T03:12:42;98836.63;;;13.75;100.00
33280;BME280;20403;43.114;12.434;2023-05-29T03:15:09;98839.25;;;13.75;100.00
33280;BME280;20403;43.114;12.434;2023-05-29T03:17:34;98831.03;;;13.66;100.00
33280;BME280;20403;43.114;12.434;2023-05-29T03:20:02;98837.09;;;13.72;100.00
33280;BME280;20403;43.114;12.434;2023-05-29T03:22:31;98832.13;;;13.71;100.00
33280;BME280;20403;43.114;12.434;2023-05-29T03:24:56;98834.81;;;13.81;100.00
33280;BME280;20403;43.114;12.434;2023-05-29T03:27:22;98831.94;;;13.77;100.00
33280;BME280;20403;43.114;12.434;2023-05-29T03:29:47;98836.63;;;13.75;100.00
33280;BME280;20403;43.114;12.434;2023-05-29T03:32:13;98844.28;;;13.82;100.00
33280;BME280;20403;43.114;12.434;2023-05-29T03:34:38;98840.06;;;13.81;100.00
33280;BME280;20403;43.114;12.434;2023-05-29T03:37:05;98844.53;;;13.80;100.00
33280;BME280;20403;43.114;12.434;2023-05-29T03:39:30;98836.78;;;13.63;100.00
33280;BME280;20403;43.114;12.434;2023-05-29T03:41:56;98843.00;;;13.57;100.00
33280;BME280;20403;43.114;12.434;2023-05-29T03:44:21;98838.31;;;13.59;100.00
33280;BME280;20403;43.114;12.434;2023-05-29T03:46:46;98844.56;;;13.58;100.00
33280;BME280;20403;43.114;12.434;2023-05-29T03:49:12;98842.25;;;13.62;100.00
33280;BME280;20403;43.114;12.434;2023-05-29T03:51:37;98835.50;;;13.66;100.00
33280;BME280;20403;43.114;12.434;2023-05-29T03:54:03;98836.03;;;13.68;100.00
33280;BME280;20403;43.114;12.434;2023-05-29T03:56:28;98843.31;;;13.61;100.00
33280;BME280;20403;43.114;12.434;2023-05-29T03:58:54;98839.09;;;13.60;100.00
33280;BME280;20403;43.114;12.434;2023-05-29T04:01:20;98843.78;;;13.58;100.00
33280;BME280;20403;43.114;12.434;2023-05-29T04:03:45;98846.41;;;13.58;100.00
33280;BME280;20403;43.114;12.434;2023-05-29T04:06:11;98836.19;;;13.56;100.00
33280;BME280;20403;43.114;12.434;2023-05-29T04:08:36;98848.81;;;13.64;100.00
33280;BME280;20403;43.114;12.434;2023-05-29T04:11:02;98845.22;;;13.71;100.00
33280;BME280;20403;43.114;12.434;2023-05-29T04:13:29;98839.50;;;13.79;100.00
33280;BME280;20403;43.114;12.434;2023-05-29T04:15:54;98845.81;;;13.78;100.00
33280;BME280;20403;43.114;12.434;2023-05-29T04:18:20;98847.41;;;13.84;100.00
33280;BME280;20403;43.114;12.434;2023-05-29T04:20:46;98849.03;;;13.85;100.00
33280;BME280;20403;43.114;12.434;2023-05-29T04:23:13;98843.44;;;13.76;100.00
33280;BME280;20403;43.114;12.434;2023-05-29T04:25:38;98849.75;;;13.80;100.00
33280;BME280;20403;43.114;12.434;2023-05-29T04:28:04;98857.44;;;13.87;100.00
33280;BME280;20403;43.114;12.434;2023-05-29T04:30:30;98851.78;;;14.00;100.00
33280;BME280;20403;43.114;12.434;2023-05-29T04:32:57;98852.34;;;14.07;100.00
33280;BME280;20403;43.114;12.434;2023-05-29T04:35:23;98854.25;;;14.17;100.00
33280;BME280;20403;43.114;12.434;2023-05-29T04:37:48;98854.09;;;14.34;100.00
33280;BME280;20403;43.114;12.434;2023-05-29T04:40:13;98854.09;;;14.34;100.00
33280;BME280;20403;43.114;12.434;2023-05-29T04:42:43;98850.50;;;14.40;100.00
33280;BME280;20403;43.114;12.434;2023-05-29T04:45:10;98854.56;;;14.58;100.00
33280;BME280;20403;43.114;12.434;2023-05-29T04:47:36;98850.69;;;14.71;100.00
33280;BME280;20403;43.114;12.434;2023-05-29T04:50:15;98853.13;;;14.88;100.00
33280;BME280;20403;43.114;12.434;2023-05-29T04:52:41;98862.38;;;15.01;100.00
33280;BME280;20403;43.114;12.434;2023-05-29T04:55:08;98860.34;;;15.13;100.00
33280;BME280;20403;43.114;12.434;2023-05-29T04:57:35;98864.88;;;15.28;100.00
33280;BME280;20403;43.114;12.434;2023-05-29T05:00:01;98864.94;;;15.48;100.00
33280;BME280;20403;43.114;12.434;2023-05-29T05:02:30;98866.00;;;15.58;100.00
33280;BME280;20403;43.114;12.434;2023-05-29T05:04:55;98858.91;;;15.68;100.00
33280;BME280;20403;43.114;12.434;2023-05-29T05:07:21;98861.06;;;15.82;100.00
33280;BME280;20403;43.114;12.434;2023-05-29T05:09:47;98862.41;;;15.94;100.00
33280;BME280;20403;43.114;12.434;2023-05-29T05:12:12;98861.84;;;16.08;100.00
33280;BME280;20403;43.114;12.434;2023-05-29T05:14:38;98857.91;;;16.21;100.00
33280;BME280;20403;43.114;12.434;2023-05-29T05:17:03;98859.22;;;16.28;100.00
33280;BME280;20403;43.114;12.434;2023-05-29T05:19:29;98857.38;;;16.34;100.00
33280;BME280;20403;43.114;12.434;2023-05-29T05:21:54;98856.31;;;16.35;100.00
33280;BME280;20403;43.114;12.434;2023-05-29T05:24:20;98857.13;;;16.41;100.00
33280;BME280;20403;43.114;12.434;2023-05-29T05:26:45;98859.44;;;16.57;100.00
33280;BME280;20403;43.114;12.434;2023-05-29T05:29:10;98851.22;;;16.74;100.00
33280;BME280;20403;43.114;12.434;2023-05-29T05:31:36;98855.19;;;16.87;100.00
33280;BME280;20403;43.114;12.434;2023-05-29T05:34:01;98851.44;;;17.04;100.00
33280;BME280;20403;43.114;12.434;2023-05-29T05:36:27;98852.75;;;17.06;100.00
33280;BME280;20403;43.114;12.434;2023-05-29T05:38:52;98855.56;;;17.25;100.00
33280;BME280;20403;43.114;12.434;2023-05-29T05:41:17;98859.25;;;17.24;100.00
33280;BME280;20403;43.114;12.434;2023-05-29T05:43:43;98855.03;;;17.23;100.00
33280;BME280;20403;43.114;12.434;2023-05-29T05:46:08;98854.78;;;17.25;100.00
33280;BME280;20403;43.114;12.434;2023-05-29T05:48:34;98849.97;;;17.32;100.00
33280;BME280;20403;43.114;12.434;2023-05-29T05:50:59;98859.97;;;17.40;100.00
33280;BME280;20403;43.114;12.434;2023-05-29T05:53:25;98859.19;;;17.34;100.00
33280;BME280;20403;43.114;12.434;2023-05-29T05:55:50;98861.31;;;17.32;100.00
33280;BME280;20403;43.114;12.434;2023-05-29T05:58:16;98856.31;;;17.36;100.00
33280;BME280;20403;43.114;12.434;2023-05-29T06:00:41;98858.63;;;17.42;100.00
33280;BME280;20403;43.114;12.434;2023-05-29T06:03:07;98849.09;;;17.47;100.00
33280;BME280;20403;43.114;12.434;2023-05-29T06:05:33;98852.47;;;17.57;100.00
33280;BME280;20403;43.114;12.434;2023-05-29T06:08:01;98853.72;;;17.65;100.00
33280;BME280;20403;43.114;12.434;2023-05-29T06:10:27;98854.25;;;17.72;100.00
33280;BME280;20403;43.114;12.434;2023-05-29T06:12:53;98843.06;;;17.85;100.00
33280;BME280;20403;43.114;12.434;2023-05-29T06:15:18;98850.09;;;18.00;100.00
33280;BME280;20403;43.114;12.434;2023-05-29T06:17:44;98843.63;;;18.17;100.00
33280;BME280;20403;43.114;12.434;2023-05-29T06:20:10;98845.25;;;18.42;100.00
33280;BME280;20403;43.114;12.434;2023-05-29T06:22:37;98840.09;;;18.56;100.00
33280;BME280;20403;43.114;12.434;2023-05-29T06:25:02;98842.88;;;18.64;100.00
33280;BME280;20403;43.114;12.434;2023-05-29T06:27:28;98839.69;;;18.67;100.00
33280;BME280;20403;43.114;12.434;2023-05-29T06:29:53;98832.34;;;18.88;100.00
33280;BME280;20403;43.114;12.434;2023-05-29T06:32:18;98835.88;;;19.03;100.00
33280;BME280;20403;43.114;12.434;2023-05-29T06:34:44;98831.03;;;19.10;100.00
33280;BME280;20403;43.114;12.434;2023-05-29T06:37:09;98829.56;;;19.23;100.00
33280;BME280;20403;43.114;12.434;2023-05-29T06:39:35;98835.84;;;19.46;100.00
33280;BME280;20403;43.114;12.434;2023-05-29T06:42:00;98832.59;;;19.68;100.00
33280;BME280;20403;43.114;12.434;2023-05-29T06:44:26;98835.25;;;19.87;100.00
33280;BME280;20403;43.114;12.434;2023-05-29T06:46:52;98832.44;;;19.97;100.00
33280;BME280;20403;43.114;12.434;2023-05-29T06:49:17;98831.44;;;19.93;100.00
33280;BME280;20403;43.114;12.434;2023-05-29T06:51:44;98826.06;;;19.98;100.00
33280;BME280;20403;43.114;12.434;2023-05-29T06:54:09;98834.34;;;20.10;100.00
33280;BME280;20403;43.114;12.434;2023-05-29T06:56:35;98831.38;;;20.12;100.00
33280;BME280;20403;43.114;12.434;2023-05-29T06:59:00;98833.88;;;20.22;100.00
33280;BME280;20403;43.114;12.434;2023-05-29T07:01:26;98828.97;;;20.29;100.00
33280;BME280;20403;43.114;12.434;2023-05-29T07:03:52;98836.34;;;20.46;100.00
33280;BME280;20403;43.114;12.434;2023-05-29T07:06:18;98838.75;;;20.62;100.00
33280;BME280;20403;43.114;12.434;2023-05-29T07:08:43;98831.31;;;20.77;100.00
33280;BME280;20403;43.114;12.434;2023-05-29T07:11:09;98829.41;;;20.92;100.00
33280;BME280;20403;43.114;12.434;2023-05-29T07:13:34;98826.22;;;21.17;100.00
33280;BME280;20403;43.114;12.434;2023-05-29T07:16:00;98829.16;;;21.30;100.00
33280;BME280;20403;43.114;12.434;2023-05-29T07:18:26;98824.69;;;21.39;100.00
33280;BME280;20403;43.114;12.434;2023-05-29T07:20:51;98823.28;;;21.55;100.00
33280;BME280;20403;43.114;12.434;2023-05-29T07:23:16;98822.22;;;21.56;100.00
33280;BME280;20403;43.114;12.434;2023-05-29T07:25:42;98817.63;;;21.71;100.00
33280;BME280;20403;43.114;12.434;2023-05-29T07:28:07;98816.53;;;21.72;100.00
33280;BME280;20403;43.114;12.434;2023-05-29T07:30:33;98815.00;;;21.71;100.00
33280;BME280;20403;43.114;12.434;2023-05-29T07:32:58;98807.50;;;21.95;100.00
33280;BME280;20403;43.114;12.434;2023-05-29T07:35:23;98811.69;;;22.19;100.00
33280;BME280;20403;43.114;12.434;2023-05-29T07:37:49;98810.34;;;22.30;100.00
33280;BME280;20403;43.114;12.434;2023-05-29T07:40:16;98804.03;;;22.57;100.00
33280;BME280;20403;43.114;12.434;2023-05-29T07:42:42;98799.72;;;22.79;100.00
33280;BME280;20403;43.114;12.434;2023-05-29T07:45:07;98797.53;;;22.90;100.00
33280;BME280;20403;43.114;12.434;2023-05-29T07:47:33;98796.47;;;22.91;100.00
33280;BME280;20403;43.114;12.434;2023-05-29T07:49:58;98793.81;;;22.91;100.00
33280;BME280;20403;43.114;12.434;2023-05-29T07:52:23;98796.78;;;22.98;100.00
33280;BME280;20403;43.114;12.434;2023-05-29T07:54:49;98797.75;;;23.19;100.00
33280;BME280;20403;43.114;12.434;2023-05-29T07:57:14;98794.00;;;23.29;100.00
33280;BME280;20403;43.114;12.434;2023-05-29T07:59:41;98778.84;;;23.30;100.00
33280;BME280;20403;43.114;12.434;2023-05-29T08:02:07;98783.53;;;23.50;100.00
33280;BME280;20403;43.114;12.434;2023-05-29T08:04:33;98782.25;;;23.74;100.00
33280;BME280;20403;43.114;12.434;2023-05-29T08:07:02;98777.97;;;23.99;100.00
33280;BME280;20403;43.114;12.434;2023-05-29T08:09:30;98773.50;;;24.20;100.00
33280;BME280;20403;43.114;12.434;2023-05-29T08:11:56;98774.84;;;24.35;100.00
33280;BME280;20403;43.114;12.434;2023-05-29T08:14:21;98778.91;;;24.50;100.00
33280;BME280;20403;43.114;12.434;2023-05-29T08:16:46;98775.09;;;24.51;100.00
33280;BME280;20403;43.114;12.434;2023-05-29T08:19:12;98776.22;;;24.80;100.00
33280;BME280;20403;43.114;12.434;2023-05-29T08:21:37;98774.00;;;24.82;100.00
33280;BME280;20403;43.114;12.434;2023-05-29T08:24:03;98764.63;;;24.97;100.00
33280;BME280;20403;43.114;12.434;2023-05-29T08:26:32;98765.66;;;24.83;94.88
33280;BME280;20403;43.114;12.434;2023-05-29T08:28:58;98775.09;;;25.02;100.00
33280;BME280;20403;43.114;12.434;2023-05-29T08:31:23;98771.47;;;25.06;90.37
33280;BME280;20403;43.114;12.434;2023-05-29T08:33:50;98773.16;;;25.32;100.00
33280;BME280;20403;43.114;12.434;2023-05-29T08:36:16;98777.16;;;25.26;100.00
33280;BME280;20403;43.114;12.434;2023-05-29T08:38:42;98769.47;;;25.24;100.00
33280;BME280;20403;43.114;12.434;2023-05-29T08:41:08;98776.28;;;25.34;98.57
33280;BME280;20403;43.114;12.434;2023-05-29T08:43:41;98773.25;;;25.44;93.88
33280;BME280;20403;43.114;12.434;2023-05-29T08:46:07;98770.00;;;25.51;93.38
33280;BME280;20403;43.114;12.434;2023-05-29T08:48:35;98769.28;;;25.63;98.14
33280;BME280;20403;43.114;12.434;2023-05-29T08:51:05;98770.41;;;25.74;80.37
33280;BME280;20403;43.114;12.434;2023-05-29T08:53:33;98767.50;;;26.00;88.00
33280;BME280;20403;43.114;12.434;2023-05-29T08:55:59;98767.31;;;26.30;92.19
33280;BME280;20403;43.114;12.434;2023-05-29T08:58:26;98767.38;;;26.46;73.50
33280;BME280;20403;43.114;12.434;2023-05-29T09:00:52;98773.44;;;26.67;78.72
33280;BME280;20403;43.114;12.434;2023-05-29T09:03:17;98776.97;;;26.83;72.55
33280;BME280;20403;43.114;12.434;2023-05-29T09:05:43;98776.53;;;26.81;66.36
33280;BME280;20403;43.114;12.434;2023-05-29T09:08:10;98774.75;;;26.86;64.00
33280;BME280;20403;43.114;12.434;2023-05-29T09:10:38;98776.84;;;26.92;67.37
33280;BME280;20403;43.114;12.434;2023-05-29T09:13:04;98779.41;;;26.89;79.45
33280;BME280;20403;43.114;12.434;2023-05-29T09:15:30;98775.25;;;27.03;74.01
33280;BME280;20403;43.114;12.434;2023-05-29T09:17:57;98774.56;;;27.07;67.71
33280;BME280;20403;43.114;12.434;2023-05-29T09:20:23;98776.13;;;27.20;64.45
33280;BME280;20403;43.114;12.434;2023-05-29T09:23:08;98778.75;;;27.32;59.40
33280;BME280;20403;43.114;12.434;2023-05-29T09:25:39;98778.34;;;27.46;57.37
33280;BME280;20403;43.114;12.434;2023-05-29T09:28:06;98776.06;;;27.60;58.87
33280;BME280;20403;43.114;12.434;2023-05-29T09:33:00;98777.81;;;27.69;57.58
33280;BME280;20403;43.114;12.434;2023-05-29T09:35:32;98774.56;;;27.47;54.83
33280;BME280;20403;43.114;12.434;2023-05-29T09:37:57;98770.78;;;27.48;57.06
33280;BME280;20403;43.114;12.434;2023-05-29T09:40:22;98769.00;;;27.40;58.25
33280;BME280;20403;43.114;12.434;2023-05-29T09:42:48;98769.16;;;27.59;56.73
33280;BME280;20403;43.114;12.434;2023-05-29T09:45:17;98769.78;;;27.69;54.76
33280;BME280;20403;43.114;12.434;2023-05-29T09:47:43;98770.03;;;27.79;55.46
33280;BME280;20403;43.114;12.434;2023-05-29T09:50:18;98773.28;;;28.01;57.20
33280;BME280;20403;43.114;12.434;2023-05-29T09:52:44;98777.94;;;28.20;56.54
33280;BME280;20403;43.114;12.434;2023-05-29T09:55:09;98775.44;;;28.27;54.72
33280;BME280;20403;43.114;12.434;2023-05-29T09:57:36;98782.53;;;28.19;55.94
33280;BME280;20403;43.114;12.434;2023-05-29T10:00:02;98774.66;;;27.95;54.57
33280;BME280;20403;43.114;12.434;2023-05-29T10:02:29;98776.03;;;28.20;55.75
33280;BME280;20403;43.114;12.434;2023-05-29T10:04:54;98773.78;;;28.38;52.37
33280;BME280;20403;43.114;12.434;2023-05-29T10:07:27;98770.06;;;28.27;52.27
33280;BME280;20403;43.114;12.434;2023-05-29T10:09:59;98765.03;;;28.41;55.23
33280;BME280;20403;43.114;12.434;2023-05-29T10:12:27;98779.06;;;28.51;55.49
33280;BME280;20403;43.114;12.434;2023-05-29T10:14:56;98767.38;;;28.43;54.99
33280;BME280;20403;43.114;12.434;2023-05-29T10:17:25;98775.59;;;28.50;57.07
33280;BME280;20403;43.114;12.434;2023-05-29T10:19:52;98769.69;;;28.60;51.56
33280;BME280;20403;43.114;12.434;2023-05-29T10:22:20;98774.84;;;28.49;51.99
33280;BME280;20403;43.114;12.434;2023-05-29T10:24:48;98769.09;;;28.51;52.31
33280;BME280;20403;43.114;12.434;2023-05-29T10:27:14;98767.06;;;28.80;50.30
33280;BME280;20403;43.114;12.434;2023-05-29T10:29:54;98771.84;;;28.90;49.33
33280;BME280;20403;43.114;12.434;2023-05-29T10:32:28;98764.81;;;29.01;47.83
33280;BME280;20403;43.114;12.434;2023-05-29T10:37:48;98766.56;;;28.94;52.52
33280;BME280;20403;43.114;12.434;2023-05-29T10:40:15;98772.25;;;29.08;50.54
33280;BME280;20403;43.114;12.434;2023-05-29T10:42:49;98765.19;;;29.19;48.11
33280;BME280;20403;43.114;12.434;2023-05-29T10:50:40;98770.47;;;29.16;50.71
33280;BME280;20403;43.114;12.434;2023-05-29T10:53:06;98774.66;;;29.13;52.22
33280;BME280;20403;43.114;12.434;2023-05-29T10:55:39;98774.66;;;29.13;51.59
33280;BME280;20403;43.114;12.434;2023-05-29T10:58:09;98771.91;;;29.09;48.44
33280;BME280;20403;43.114;12.434;2023-05-29T11:00:46;98773.31;;;29.23;50.31
33280;BME280;20403;43.114;12.434;2023-05-29T11:03:15;98767.81;;;29.35;49.94
33280;BME280;20403;43.114;12.434;2023-05-29T11:08:34;98766.38;;;29.22;51.15
33280;BME280;20403;43.114;12.434;2023-05-29T11:11:01;98773.59;;;29.37;50.57
33280;BME280;20403;43.114;12.434;2023-05-29T11:13:36;98758.72;;;29.63;48.68
33280;BME280;20403;43.114;12.434;2023-05-29T11:16:11;98766.75;;;29.82;48.81
33280;BME280;20403;43.114;12.434;2023-05-29T11:18:42;98759.22;;;29.91;48.71
33280;BME280;20403;43.114;12.434;2023-05-29T11:23:53;98765.72;;;29.67;48.14
33280;BME280;20403;43.114;12.434;2023-05-29T11:26:22;98759.69;;;29.54;48.97
33280;BME280;20403;43.114;12.434;2023-05-29T11:28:49;98753.94;;;29.76;48.46
33280;BME280;20403;43.114;12.434;2023-05-29T11:31:15;98752.03;;;29.99;46.32
33280;BME280;20403;43.114;12.434;2023-05-29T11:33:48;98750.47;;;30.21;48.94
33280;BME280;20403;43.114;12.434;2023-05-29T11:36:21;98748.09;;;30.16;48.53
33280;BME280;20403;43.114;12.434;2023-05-29T11:38:47;98746.41;;;30.31;48.91
33280;BME280;20403;43.114;12.434;2023-05-29T11:41:13;98749.50;;;30.33;46.92
33280;BME280;20403;43.114;12.434;2023-05-29T11:43:38;98759.38;;;30.25;48.89
33280;BME280;20403;43.114;12.434;2023-05-29T11:46:17;98759.19;;;30.14;48.26
33280;BME280;20403;43.114;12.434;2023-05-29T11:48:47;98751.91;;;29.92;48.62
33280;BME280;20403;43.114;12.434;2023-05-29T11:51:13;98756.28;;;29.77;50.68
33280;BME280;20403;43.114;12.434;2023-05-29T11:53:42;98749.75;;;28.97;51.41
33280;BME280;20403;43.114;12.434;2023-05-29T11:56:09;98746.34;;;28.61;51.46
33280;BME280;20403;43.114;12.434;2023-05-29T11:58:39;98740.19;;;28.44;52.91
33280;BME280;20403;43.114;12.434;2023-05-29T12:01:05;98738.63;;;28.59;56.40
33280;BME280;20403;43.114;12.434;2023-05-29T12:03:37;98720.44;;;28.68;53.01
33280;BME280;20403;43.114;12.434;2023-05-29T12:06:04;98717.19;;;28.98;52.78
33280;BME280;20403;43.114;12.434;2023-05-29T12:08:29;98713.56;;;28.90;50.49
33280;BME280;20403;43.114;12.434;2023-05-29T12:10:54;98703.50;;;28.84;48.49
33280;BME280;20403;43.114;12.434;2023-05-29T12:13:20;98710.75;;;29.22;49.63
33280;BME280;20403;43.114;12.434;2023-05-29T12:15:47;98707.56;;;29.59;47.98
33280;BME280;20403;43.114;12.434;2023-05-29T12:18:14;98704.38;;;29.73;46.16
33280;BME280;20403;43.114;12.434;2023-05-29T12:20:40;98704.16;;;29.82;48.24
33280;BME280;20403;43.114;12.434;2023-05-29T12:23:05;98702.53;;;30.04;46.42
33280;BME280;20403;43.114;12.434;2023-05-29T12:25:33;98698.16;;;30.19;47.25
33280;BME280;20403;43.114;12.434;2023-05-29T12:28:00;98709.50;;;30.31;46.58
33280;BME280;20403;43.114;12.434;2023-05-29T12:30:25;98708.84;;;29.88;45.80
33280;BME280;20403;43.114;12.434;2023-05-29T12:32:52;98703.94;;;29.48;46.88
33280;BME280;20403;43.114;12.434;2023-05-29T12:40:24;98703.91;;;28.15;49.99
33280;BME280;20403;43.114;12.434;2023-05-29T12:43:01;98702.41;;;28.34;49.51
33280;BME280;20403;43.114;12.434;2023-05-29T12:45:29;98689.50;;;28.75;47.51
33280;BME280;20403;43.114;12.434;2023-05-29T12:47:57;98702.41;;;29.27;47.53
33280;BME280;20403;43.114;12.434;2023-05-29T12:50:28;98702.72;;;29.45;49.16
33280;BME280;20403;43.114;12.434;2023-05-29T12:52:54;98700.66;;;29.58;47.35
33280;BME280;20403;43.114;12.434;2023-05-29T12:55:20;98702.28;;;29.86;48.86
33280;BME280;20403;43.114;12.434;2023-05-29T12:57:45;98699.53;;;29.82;48.40
33280;BME280;20403;43.114;12.434;2023-05-29T13:00:12;98697.25;;;29.84;48.81
33280;BME280;20403;43.114;12.434;2023-05-29T13:02:38;98686.16;;;29.63;47.79
33280;BME280;20403;43.114;12.434;2023-05-29T13:05:03;98689.72;;;29.47;46.71
33280;BME280;20403;43.114;12.434;2023-05-29T13:07:29;98693.75;;;29.15;46.92
33280;BME280;20403;43.114;12.434;2023-05-29T13:09:55;98692.34;;;29.21;47.56
33280;BME280;20403;43.114;12.434;2023-05-29T13:12:21;98689.78;;;29.28;46.53